Latest Weather Observations for Creal Reef

IDQ60801

Issued at 4:33 pm EST Sunday 22 May 2022 (issued every 10 minutes, with the page automatically refreshed every 10 minutes)

About weather observations | Map of weather stations | Latest weather observations for QLD | Other Formats
Station Details ID: 200736 Name: CREAL REEF Lat: -20.53 Lon: 150.38 Height: 1.7 m
Data from the previous 72 hours. | See also: Recent months for locations in Queensland
Date/Time
EST
Temp
°C
App
Temp
°C
Dew
Point
°C
Rel
Hum
%
Delta-T
°C
Wind Press
QNH
hPa
Press
MSL
hPa
Rain since
9am
mm
Dir  Spd
km/h
Gust
km/h
Spd
kts
Gust
kts
22/04:30pm 24.9 - - - - SE 33 39 18 21 1012.0 1011.9 -
22/04:00pm 23.3 - - - - SE 43 52 23 28 1011.8 1011.7 -
22/03:47pm 24.0 - - - - SE 28 46 15 25 1011.8 1011.7 -
22/03:30pm 23.3 - - - - SE 43 50 23 27 1011.7 1011.6 -
22/03:00pm 24.0 - - - - ESE 39 46 21 25 1011.6 1011.5 -
22/02:30pm 23.3 - - - - ESE 43 50 23 27 1011.7 1011.6 -
22/02:16pm 23.6 - - - - SE 37 46 20 25 1011.7 1011.6 -
22/02:00pm 24.5 - - - - SE 33 41 18 22 1011.8 1011.7 -
22/01:30pm 23.0 - - - - SE 39 48 21 26 1012.0 1011.9 -
22/01:00pm 23.3 - - - - ESE 43 50 23 27 1012.3 1012.2 -
22/12:30pm 24.6 - - - - SE 39 44 21 24 1012.5 1012.4 -
22/12:00pm 24.1 - - - - SSE 44 52 24 28 1012.6 1012.5 -
22/11:30am 24.4 - - - - SE 37 46 20 25 1013.1 1013.0 -
22/11:00am 24.3 - - - - SE 37 44 20 24 1013.6 1013.5 -
22/10:30am 23.6 - - - - SE 43 54 23 29 1013.7 1013.6 -
22/10:00am 24.4 - - - - SE 39 48 21 26 1013.9 1013.8 -
22/09:30am 23.9 - - - - SE 39 50 21 27 1013.8 1013.7 -
22/09:00am 23.9 - - - - SE 43 56 23 30 1013.7 1013.6 -
22/08:30am 24.5 - - - - SE 39 46 21 25 1013.7 1013.6 -
22/08:00am 23.3 - - - - SE 48 59 26 32 1013.5 1013.4 -
22/07:30am 24.5 - - - - SE 43 52 23 28 1013.2 1013.1 -
22/07:00am 24.5 - - - - SE 43 56 23 30 1012.6 1012.5 -
22/06:30am 24.8 - - - - SE 48 59 26 32 1012.3 1012.2 -
22/06:00am 24.7 - - - - SSE 48 57 26 31 1011.9 1011.8 -
22/05:30am 24.4 - - - - SSE 46 57 25 31 1011.9 1011.8 -
22/05:00am 24.0 - - - - SSE 46 54 25 29 1011.6 1011.5 -
22/04:30am 23.2 - - - - SE 43 56 23 30 1011.6 1011.5 -
22/04:00am 23.9 - - - - SSE 52 63 28 34 1011.3 1011.2 -
22/03:30am 24.7 - - - - SSE 44 52 24 28 1011.3 1011.2 -
22/03:00am 24.6 - - - - S 44 52 24 28 1011.6 1011.5 -
22/02:30am 24.4 - - - - SSE 46 54 25 29 1011.9 1011.8 -
22/02:00am 24.5 - - - - SSE 44 50 24 27 1012.2 1012.1 -
22/01:30am 24.6 - - - - SSE 44 54 24 29 1012.5 1012.4 -
22/01:00am 24.4 - - - - SSE 46 50 25 27 1012.7 1012.6 -
22/12:30am 24.2 - - - - SSE 48 56 26 30 1012.9 1012.8 -
22/12:00am 24.1 - - - - SSE 44 52 24 28 1013.0 1012.9 -
 
Date/Time
EST
Temp
°C
App
Temp
°C
Dew
Point
°C
Rel
Hum
%
Delta-T
°C
Wind Press
QNH
hPa
Press
MSL
hPa
Rain since
9am
mm
Dir  Spd
km/h
Gust
km/h
Spd
kts
Gust
kts
21/11:30pm 23.7 - - - - SSE 46 54 25 29 1013.2 1013.1 -
21/11:00pm 24.3 - - - - SSE 44 54 24 29 1013.5 1013.4 -
21/10:30pm 24.1 - - - - SSE 48 56 26 30 1013.5 1013.4 -
21/10:00pm 24.6 - - - - SSE 43 52 23 28 1013.5 1013.4 -
21/09:30pm 24.6 - - - - SSE 43 50 23 27 1013.7 1013.6 -
21/09:00pm 24.5 - - - - SSE 44 50 24 27 1013.6 1013.5 -
21/08:30pm 24.4 - - - - SSE 43 48 23 26 1013.8 1013.7 -
21/08:00pm 24.3 - - - - SSE 43 48 23 26 1013.7 1013.6 -
21/07:30pm 24.1 - - - - SSE 43 50 23 27 1013.4 1013.3 -
21/07:00pm 24.0 - - - - S 46 52 25 28 1013.2 1013.1 -
21/06:30pm 24.0 - - - - S 46 50 25 27 1012.9 1012.8 -
21/06:00pm 24.0 - - - - S 46 52 25 28 1012.5 1012.4 -
21/05:30pm 23.5 - - - - SSE 48 56 26 30 1012.3 1012.2 -
21/05:00pm 23.8 - - - - SSE 46 52 25 28 1012.2 1012.1 -
21/04:30pm 23.9 - - - - SSE 43 46 23 25 1012.1 1012.0 -
21/04:00pm 24.3 - - - - S 33 39 18 21 1012.1 1012.0 -
21/03:30pm 24.5 - - - - SSE 30 33 16 18 1012.1 1012.0 -
21/03:00pm 24.8 - - - - SSE 20 24 11 13 1012.1 1012.0 -
21/02:30pm 24.7 - - - - SE 13 15 7 8 1012.1 1012.0 -
21/02:00pm 24.7 - - - - CALM 0 0 0 0 1012.2 1012.1 -
21/01:30pm 24.4 - - - - E 2 7 1 4 1012.3 1012.2 -
21/01:00pm 24.0 - - - - ESE 15 20 8 11 1012.5 1012.4 -
21/12:30pm 23.2 - - - - SE 13 17 7 9 1013.1 1013.0 -
21/12:00pm 23.0 - - - - SE 20 26 11 14 1013.7 1013.6 -
21/11:30am 23.3 - - - - S 30 35 16 19 1014.0 1013.9 -
21/11:00am 23.5 - - - - S 26 30 14 16 1014.4 1014.3 -
21/10:30am 23.2 - - - - S 32 35 17 19 1014.6 1014.5 -
21/10:00am 23.1 - - - - S 35 41 19 22 1014.8 1014.7 -
21/09:30am 23.3 - - - - S 39 44 21 24 1014.9 1014.8 -
21/09:00am 23.2 - - - - S 41 43 22 23 1014.8 1014.7 -
21/08:30am 23.9 - - - - S 35 39 19 21 1014.7 1014.6 -
21/08:00am 23.7 - - - - S 39 43 21 23 1014.5 1014.4 -
21/07:30am 23.8 - - - - S 39 43 21 23 1014.4 1014.3 -
21/07:00am 23.9 - - - - S 39 44 21 24 1014.1 1014.0 -
21/06:30am 23.3 - - - - S 39 43 21 23 1013.9 1013.8 -
21/06:00am 23.4 - - - - S 32 43 17 23 1013.9 1013.8 -
21/05:30am 24.0 - - - - S 39 43 21 23 1013.5 1013.4 -
21/05:00am 24.6 - - - - S 32 37 17 20 1013.4 1013.3 -
21/04:30am 24.7 - - - - SSW 20 26 11 14 1013.4 1013.3 -
21/04:00am 24.3 - - - - SW 20 20 11 11 1013.6 1013.5 -
21/03:30am 24.3 - - - - SE 9 11 5 6 1013.6 1013.5 -
21/03:00am 24.0 - - - - NE 11 17 6 9 1013.7 1013.6 -
21/02:30am 24.6 - - - - NE 13 15 7 8 1013.9 1013.8 -
21/02:00am 24.3 - - - - NE 11 17 6 9 1014.1 1014.0 -
21/01:30am 24.2 - - - - NNE 20 24 11 13 1014.1 1014.0 -
21/01:00am 24.4 - - - - ENE 20 24 11 13 1014.3 1014.2 -
21/12:30am 23.6 - - - - ENE 28 33 15 18 1014.7 1014.6 -
 
Date/Time
EST
Temp
°C
App
Temp
°C
Dew
Point
°C
Rel
Hum
%
Delta-T
°C
Wind Press
QNH
hPa
Press
MSL
hPa
Rain since
9am
mm
Dir  Spd
km/h
Gust
km/h
Spd
kts
Gust
kts
20/10:00pm 23.8 - - - - E 32 35 17 19 1015.6 1015.5 -
20/09:30pm 24.1 - - - - E 28 32 15 17 1015.6 1015.5 -
20/09:00pm 24.2 - - - - E 30 33 16 18 1015.7 1015.6 -
20/08:30pm 24.4 - - - - E 30 33 16 18 1015.7 1015.6 -
20/08:00pm 24.5 - - - - E 30 35 16 19 1015.3 1015.2 -
20/07:30pm 24.6 - - - - E 28 32 15 17 1015.0 1014.9 -
20/07:00pm 24.7 - - - - ENE 30 32 16 17 1014.9 1014.8 -
20/06:30pm 24.7 - - - - E 30 35 16 19 1014.6 1014.5 -
20/06:00pm 24.5 - - - - E 28 32 15 17 1014.5 1014.4 -
20/05:30pm 24.5 - - - - ESE 32 35 17 19 1014.2 1014.1 -
20/05:00pm 24.7 - - - - ESE 35 39 19 21 1014.0 1013.9 -
20/04:30pm 24.9 - - - - ESE 30 35 16 19 1013.7 1013.6 -
20/04:00pm 25.0 - - - - ESE 22 26 12 14 1013.5 1013.4 -
20/03:30pm 24.5 - - - - ESE 28 30 15 16 1013.3 1013.2 -
20/03:00pm 24.6 - - - - SE 24 28 13 15 1013.3 1013.2 -
20/02:30pm 24.6 - - - - ESE 15 19 8 10 1013.3 1013.2 -
20/02:00pm 24.3 - - - - CALM 0 0 0 0 1013.5 1013.4 -
20/01:30pm 24.1 - - - - E 20 32 11 17 1013.7 1013.6 -
20/01:00pm 24.8 - - - - SSE 13 17 7 9 1014.1 1014.0 -
20/12:30pm 24.7 - - - - SE 22 26 12 14 1014.5 1014.4 -
20/12:00pm 23.5 - - - - ESE 11 19 6 10 1014.6 1014.5 -
20/11:30am 23.0 - - - - ENE 17 20 9 11 1015.0 1014.9 -
20/11:00am 22.8 - - - - NE 19 24 10 13 1015.4 1015.3 -
20/10:30am 24.0 - - - - NE 28 35 15 19 1015.6 1015.5 -
20/10:00am 24.3 - - - - E 13 22 7 12 1015.8 1015.7 -
20/09:30am 24.4 - - - - E 22 26 12 14 1015.9 1015.8 -
20/09:00am 24.5 - - - - ENE 17 20 9 11 1015.8 1015.7 -
20/08:30am 24.5 - - - - E 19 22 10 12 1015.8 1015.7 -
20/08:00am 24.4 - - - - SE 19 22 10 12 1015.6 1015.5 -
20/07:30am 24.3 - - - - SE 17 20 9 11 1015.4 1015.3 -
20/07:00am 23.3 - - - - SE 19 20 10 11 1015.1 1015.0 -
20/06:30am 23.1 - - - - ESE 24 28 13 15 1015.0 1014.9 -
20/06:00am 23.5 - - - - ESE 28 33 15 18 1014.7 1014.6 -
20/05:30am 23.4 - - - - SE 28 33 15 18 1014.5 1014.4 -
20/05:00am 24.7 - - - - SSE 26 30 14 16 1014.1 1014.0 -
20/04:30am 24.8 - - - - SSE 24 30 13 16 1014.1 1014.0 -
20/04:00am 24.5 - - - - SSE 28 32 15 17 1014.0 1013.9 -
20/03:30am 24.5 - - - - S 35 41 19 22 1014.0 1013.9 -
20/03:00am 24.2 - - - - S 41 46 22 25 1014.3 1014.2 -
20/02:30am 24.8 - - - - SSE 44 50 24 27 1014.5 1014.4 -
20/02:00am 24.6 - - - - SSE 37 48 20 26 1014.8 1014.7 -
20/01:30am 25.1 - - - - SSE 35 41 19 22 1015.1 1015.0 -
20/01:00am 24.9 - - - - SSE 39 46 21 25 1015.4 1015.3 -
20/12:30am 24.7 - - - - SSE 39 46 21 25 1015.8 1015.7 -
20/12:00am 24.7 - - - - SSE 41 48 22 26 1015.9 1015.8 -
 
Date/Time
EST
Temp
°C
App
Temp
°C
Dew
Point
°C
Rel
Hum
%
Delta-T
°C
Wind Press
QNH
hPa
Press
MSL
hPa
Rain since
9am
mm
Dir  Spd
km/h
Gust
km/h
Spd
kts
Gust
kts
19/11:30pm 23.7 - - - - SSE 41 46 22 25 1016.2 1016.1 -
19/11:00pm 25.3 - - - - SE 30 33 16 18 1016.4 1016.3 -
19/10:30pm 25.5 - - - - SE 32 39 17 21 1016.6 1016.5 -
19/10:00pm 25.5 - - - - SE 33 41 18 22 1016.6 1016.5 -
19/09:30pm 25.4 - - - - SE 32 37 17 20 1016.7 1016.6 -
19/09:00pm 25.5 - - - - SE 32 37 17 20 1016.7 1016.6 -
19/06:00pm 25.3 - - - - SE 33 41 18 22 1015.2 1015.1 -
19/05:00pm 26.0 - - - - SE 28 33 15 18 1014.6 1014.5 -

Other formats

Comma delimited format used in spreadsheet applications
http://www.bom.gov.au/fwo/IDQ60801/IDQ60801.94371.axf

JavaScript Object Notation format (JSON) in row-major order
http://www.bom.gov.au/fwo/IDQ60801/IDQ60801.94371.json

Data quality

Most of these data are generated automatically and are frequently updated. Quality checks on data are not normally performed. It is possible for incorrect values to appear. Refer to information at About Latest Weather Observations and please check the disclaimer before using these data.